createdAt,value
2018-05-25T00:01:03.443Z,24.90
2018-05-25T00:03:31.183Z,17.83
2018-05-25T00:05:59.684Z,23.17
2018-05-25T00:08:27.436Z,23.73
2018-05-25T00:10:55.137Z,21.00
2018-05-25T00:13:22.870Z,23.53
2018-05-25T00:15:50.597Z,21.93
2018-05-25T00:18:18.332Z,23.40
2018-05-25T00:20:46.076Z,24.30
2018-05-25T00:23:13.776Z,21.73
2018-05-25T00:25:41.525Z,15.07
2018-05-25T00:28:09.244Z,23.60
2018-05-25T00:30:36.956Z,23.03
2018-05-25T00:33:04.688Z,25.93
2018-05-25T00:35:32.451Z,22.83
2018-05-25T00:38:00.181Z,29.50
2018-05-25T00:40:28.697Z,32.70
2018-05-25T00:42:56.391Z,24.03
2018-05-25T00:45:24.100Z,27.63
2018-05-25T00:47:51.844Z,28.00
2018-05-25T00:50:20.343Z,25.87
2018-05-25T00:52:48.060Z,20.27
2018-05-25T00:55:27.580Z,28.53
2018-05-25T00:57:55.284Z,21.07
2018-05-25T01:00:22.993Z,20.57
2018-05-25T01:02:50.955Z,24.47
2018-05-25T01:05:18.671Z,20.27
2018-05-25T01:07:46.388Z,19.20
2018-05-25T01:10:14.128Z,21.10
2018-05-25T01:12:41.905Z,21.10
2018-05-25T01:15:09.643Z,22.70
2018-05-25T01:17:38.135Z,29.63
2018-05-25T01:20:05.888Z,19.67
2018-05-25T01:22:34.357Z,20.90
2018-05-25T01:25:02.097Z,21.93
2018-05-25T01:27:29.861Z,20.37
2018-05-25T01:29:57.580Z,25.83
2018-05-25T01:32:25.331Z,19.40
2018-05-25T01:34:53.813Z,24.70
2018-05-25T01:37:21.564Z,24.37
2018-05-25T01:39:50.209Z,24.37
2018-05-25T01:42:17.992Z,16.17
2018-05-25T01:44:45.699Z,16.87
2018-05-25T01:47:13.430Z,22.23
2018-05-25T01:49:41.144Z,22.13
2018-05-25T01:52:08.848Z,24.57
2018-05-25T01:54:36.584Z,22.67
2018-05-25T01:57:04.320Z,20.90
2018-05-25T01:59:32.084Z,20.03
2018-05-25T02:01:59.834Z,27.90
2018-05-25T02:04:27.549Z,19.47
2018-05-25T02:06:55.256Z,18.43
2018-05-25T02:09:23.756Z,25.67
2018-05-25T02:11:51.576Z,24.53
2018-05-25T02:14:19.282Z,24.50
2018-05-25T02:16:47.010Z,15.07
2018-05-25T02:19:14.720Z,29.17
2018-05-25T02:21:42.430Z,17.07
2018-05-25T02:24:10.161Z,22.63
2018-05-25T02:26:37.876Z,28.07
2018-05-25T02:29:06.352Z,18.27
2018-05-25T02:31:34.844Z,23.43
2018-05-25T02:34:03.375Z,12.10
2018-05-25T02:36:31.132Z,21.00
2018-05-25T02:38:58.875Z,16.73
2018-05-25T02:41:26.588Z,20.20
2018-05-25T02:43:54.342Z,19.40
2018-05-25T02:46:22.129Z,27.23
2018-05-25T02:48:49.852Z,18.40
2018-05-25T02:51:17.588Z,19.43
2018-05-25T02:53:45.312Z,24.87
2018-05-25T02:56:13.041Z,26.90
2018-05-25T02:58:41.172Z,14.57
2018-05-25T03:01:08.892Z,18.13
2018-05-25T03:03:36.588Z,26.17
2018-05-25T03:06:05.071Z,18.87
2018-05-25T03:08:33.564Z,19.67
2018-05-25T03:11:02.069Z,24.63
2018-05-25T03:13:29.834Z,21.90
2018-05-25T03:15:57.560Z,42.77
2018-05-25T03:18:26.036Z,19.77
2018-05-25T03:20:54.496Z,15.43
2018-05-25T03:23:22.244Z,22.90
2018-05-25T03:25:50.047Z,18.53
2018-05-25T03:28:17.799Z,21.53
2018-05-25T03:30:45.569Z,18.13
2018-05-25T03:33:14.031Z,14.93
2018-05-25T03:35:41.771Z,25.20
2018-05-25T03:38:09.510Z,22.83
2018-05-25T03:40:37.210Z,18.63
2018-05-25T03:43:05.004Z,23.80
2018-05-25T03:45:33.550Z,32.30
2018-05-25T03:48:01.281Z,18.90
2018-05-25T03:50:28.992Z,18.00
2018-05-25T03:52:56.760Z,17.57
2018-05-25T03:55:24.488Z,28.13
2018-05-25T03:57:52.200Z,30.37
2018-05-25T04:00:32.481Z,22.63
2018-05-25T04:03:00.232Z,28.40
2018-05-25T04:05:28.766Z,21.00
2018-05-25T04:07:56.504Z,25.03
2018-05-25T04:10:24.211Z,28.23
2018-05-25T04:12:52.019Z,22.50
2018-05-25T04:15:19.751Z,29.30
2018-05-25T04:17:48.221Z,26.73
2018-05-25T04:20:15.956Z,27.43
2018-05-25T04:22:43.696Z,19.97
2018-05-25T04:25:11.468Z,24.00
2018-05-25T04:27:39.170Z,32.07
2018-05-25T04:30:06.902Z,22.90
2018-05-25T04:32:34.605Z,39.13
2018-05-25T04:35:02.321Z,32.40
2018-05-25T04:37:30.092Z,23.90
2018-05-25T04:39:57.800Z,29.40
2018-05-25T04:42:25.549Z,26.27
2018-05-25T04:44:53.279Z,30.77
2018-05-25T04:47:21.004Z,28.10
2018-05-25T04:49:49.526Z,24.13
2018-05-25T04:52:17.256Z,29.40
2018-05-25T04:54:45.016Z,23.80
2018-05-25T04:57:13.484Z,22.47
2018-05-25T04:59:41.989Z,21.40
2018-05-25T05:02:09.699Z,27.20
2018-05-25T05:04:37.397Z,25.73
2018-05-25T05:07:05.905Z,26.97
2018-05-25T05:09:33.612Z,31.30
2018-05-25T05:12:01.324Z,24.00
2018-05-25T05:14:29.049Z,26.27
2018-05-25T05:16:56.752Z,23.47
2018-05-25T05:19:24.456Z,26.27
2018-05-25T05:21:52.188Z,28.13
2018-05-25T05:24:19.909Z,27.87
2018-05-25T05:26:48.381Z,32.60
2018-05-25T05:29:16.160Z,29.60
2018-05-25T05:31:44.629Z,23.80
2018-05-25T05:34:12.333Z,25.70
2018-05-25T05:36:40.092Z,23.50
2018-05-25T05:39:07.800Z,26.73
2018-05-25T05:41:35.517Z,25.67
2018-05-25T05:44:03.255Z,35.53
2018-05-25T05:46:32.066Z,29.37
2018-05-25T05:48:59.809Z,35.60
2018-05-25T05:51:28.312Z,28.50
2018-05-25T05:53:56.022Z,28.93
2018-05-25T05:56:23.733Z,20.00
2018-05-25T05:58:51.505Z,33.00
2018-05-25T06:01:19.225Z,27.03
2018-05-25T06:03:46.955Z,21.70
2018-05-25T06:06:14.687Z,27.13
2018-05-25T06:08:43.220Z,28.13
2018-05-25T06:11:11.424Z,29.07
2018-05-25T06:13:39.931Z,28.53
2018-05-25T06:16:07.639Z,25.27
2018-05-25T06:18:35.388Z,20.43
2018-05-25T06:21:03.137Z,36.00
2018-05-25T06:23:30.893Z,25.40
2018-05-25T06:25:58.653Z,24.70
2018-05-25T06:28:26.379Z,29.60
2018-05-25T06:30:54.857Z,30.83
2018-05-25T06:33:22.598Z,26.70
2018-05-25T06:35:50.372Z,28.60
2018-05-25T06:38:18.160Z,28.03
2018-05-25T06:40:46.656Z,28.97
2018-05-25T06:43:14.359Z,22.13
2018-05-25T06:45:42.088Z,26.20
2018-05-25T06:48:09.873Z,28.73
2018-05-25T06:50:37.656Z,36.80
2018-05-25T06:53:05.403Z,28.30
2018-05-25T06:55:33.176Z,27.33
2018-05-25T06:58:00.945Z,31.13
2018-05-25T07:00:28.673Z,22.40
2018-05-25T07:02:56.408Z,31.13
2018-05-25T07:05:24.900Z,34.87
2018-05-25T07:07:53.404Z,40.47
2018-05-25T07:10:21.171Z,29.73
2018-05-25T07:12:48.890Z,27.07
2018-05-25T07:15:17.408Z,35.67
2018-05-25T07:17:45.136Z,21.33
2018-05-25T07:20:12.868Z,30.87
2018-05-25T07:22:40.669Z,27.43
2018-05-25T07:25:09.165Z,23.50
2018-05-25T07:27:37.629Z,36.30
2018-05-25T07:30:05.420Z,31.20
2018-05-25T07:32:33.124Z,19.30
2018-05-25T07:35:00.853Z,29.73
2018-05-25T07:37:28.592Z,27.83
2018-05-25T07:39:57.060Z,25.10
2018-05-25T07:42:24.767Z,35.20
2018-05-25T07:44:52.503Z,22.47
2018-05-25T07:47:20.976Z,32.30
2018-05-25T07:49:49.516Z,29.50
2018-05-25T07:52:17.248Z,16.47
2018-05-25T07:54:44.986Z,31.63
2018-05-25T07:57:13.460Z,25.77
2018-05-25T07:59:41.952Z,23.90
2018-05-25T08:02:10.449Z,24.90
2018-05-25T08:04:38.177Z,23.90
2018-05-25T08:07:05.922Z,25.40
2018-05-25T08:09:33.657Z,34.67
2018-05-25T08:12:01.399Z,21.30
2018-05-25T08:14:29.173Z,22.13
2018-05-25T08:16:57.150Z,31.33
2018-05-25T08:19:24.901Z,15.27
2018-05-25T08:21:52.657Z,32.10
2018-05-25T08:24:21.224Z,19.33
2018-05-25T08:26:49.770Z,24.30
2018-05-25T08:29:17.504Z,22.20
2018-05-25T08:31:45.229Z,27.93
2018-05-25T08:34:13.733Z,25.40
2018-05-25T08:36:41.444Z,24.43
2018-05-25T08:39:09.195Z,21.93
2018-05-25T08:41:36.941Z,20.87
2018-05-25T08:44:04.760Z,28.97
2018-05-25T08:46:33.250Z,27.23
2018-05-25T08:49:02.663Z,15.67
2018-05-25T08:51:31.164Z,22.47
2018-05-25T08:53:58.922Z,29.10
2018-05-25T08:56:26.672Z,15.60
2018-05-25T08:58:54.412Z,16.07
2018-05-25T09:01:22.155Z,28.40
2018-05-25T09:03:49.877Z,26.40
2018-05-25T09:06:17.644Z,29.97
2018-05-25T09:08:45.551Z,13.87
2018-05-25T09:11:13.280Z,21.90
2018-05-25T09:13:41.044Z,20.37
2018-05-25T09:16:08.769Z,15.80
2018-05-25T09:18:37.272Z,15.17
2018-05-25T09:21:05.217Z,27.20
2018-05-25T09:23:33.724Z,22.10
2018-05-25T09:26:01.512Z,19.10
2018-05-25T09:28:29.281Z,16.27
2018-05-25T09:30:57.055Z,25.67
2018-05-25T09:33:24.763Z,21.53
2018-05-25T09:35:53.397Z,16.13
2018-05-25T09:38:21.113Z,19.77
2018-05-25T09:40:49.645Z,16.30
2018-05-25T09:43:17.349Z,15.70
2018-05-25T09:45:45.848Z,28.20
2018-05-25T09:48:13.676Z,23.77
2018-05-25T09:50:41.495Z,18.73
2018-05-25T09:53:09.276Z,22.13
2018-05-25T09:55:37.016Z,27.20
2018-05-25T09:58:04.744Z,19.70
2018-05-25T10:00:32.469Z,17.80
2018-05-25T10:03:00.216Z,20.70
2018-05-25T10:05:27.977Z,22.40
2018-05-25T10:07:55.701Z,13.27
2018-05-25T10:10:24.216Z,21.40
2018-05-25T10:12:51.928Z,13.00
2018-05-25T10:15:19.660Z,16.50
2018-05-25T10:17:47.408Z,29.17
2018-05-25T10:20:15.184Z,12.50
2018-05-25T10:22:42.922Z,17.80
2018-05-25T10:25:10.674Z,14.70
2018-05-25T10:27:39.278Z,17.87
2018-05-25T10:30:07.093Z,17.70
2018-05-25T10:32:34.830Z,12.77
2018-05-25T10:35:02.603Z,16.50
2018-05-25T10:37:30.315Z,20.33
2018-05-25T10:39:58.800Z,21.33
2018-05-25T10:42:27.289Z,27.57
2018-05-25T10:44:55.096Z,9.80
2018-05-25T10:47:22.828Z,14.33
2018-05-25T10:49:50.588Z,17.63
2018-05-25T10:52:18.321Z,22.43
2018-05-25T10:54:46.797Z,11.03
2018-05-25T10:57:14.492Z,17.53
2018-05-25T10:59:42.219Z,9.37
2018-05-25T11:02:10.015Z,8.93
2018-05-25T11:04:37.709Z,7.70
2018-05-25T11:07:05.436Z,14.57
2018-05-25T11:09:34.158Z,8.10
2018-05-25T11:12:01.880Z,18.10
2018-05-25T11:14:30.460Z,18.77
2018-05-25T11:16:58.991Z,41.20
2018-05-25T11:19:26.699Z,28.50
2018-05-25T11:21:55.263Z,16.23
2018-05-25T11:24:23.012Z,15.63
2018-05-25T11:26:51.321Z,6.97
2018-05-25T11:29:20.089Z,10.63
2018-05-25T11:31:47.801Z,9.90
2018-05-25T11:34:15.521Z,28.53
2018-05-25T11:36:43.270Z,13.73
2018-05-25T11:39:11.783Z,17.90
2018-05-25T11:41:40.332Z,2.33
2018-05-25T11:44:08.124Z,9.67
2018-05-25T11:46:36.599Z,12.43
2018-05-25T11:49:04.444Z,15.07
2018-05-25T11:51:32.180Z,18.53
2018-05-25T11:53:59.946Z,14.20
2018-05-25T11:56:27.696Z,14.70
2018-05-25T11:58:55.585Z,20.67
2018-05-25T12:01:24.417Z,10.43
2018-05-25T12:03:52.331Z,7.67
2018-05-25T12:06:20.074Z,7.77
2018-05-25T12:08:47.828Z,10.93
2018-05-25T12:11:15.621Z,9.30
2018-05-25T12:13:43.324Z,9.80
2018-05-25T12:16:11.072Z,6.13
2018-05-25T12:18:38.893Z,16.73
2018-05-25T12:21:06.610Z,11.03
2018-05-25T12:23:34.346Z,8.77
2018-05-25T12:26:02.210Z,7.90
2018-05-25T12:28:30.040Z,8.00
2018-05-25T12:30:58.538Z,10.50
2018-05-25T12:33:26.292Z,10.33
2018-05-25T12:35:54.269Z,14.33
2018-05-25T12:38:22.142Z,8.10
2018-05-25T12:40:49.860Z,10.03
2018-05-25T12:43:17.624Z,6.57
2018-05-25T12:45:45.373Z,9.20
2018-05-25T12:48:16.706Z,6.33
2018-05-25T12:50:44.485Z,13.00
2018-05-25T12:53:12.189Z,9.40
2018-05-25T12:55:40.013Z,12.17
2018-05-25T12:58:07.777Z,22.30
2018-05-25T13:00:35.536Z,10.23
2018-05-25T13:03:03.266Z,7.90
2018-05-25T13:05:31.004Z,13.43
2018-05-25T13:07:59.520Z,17.23
2018-05-25T13:10:27.260Z,10.90
2018-05-25T13:12:54.984Z,9.33
2018-05-25T13:15:22.743Z,6.20
2018-05-25T13:17:50.540Z,8.00
2018-05-25T13:20:18.270Z,8.57
2018-05-25T13:22:46.850Z,6.93
2018-05-25T13:25:14.594Z,7.00
2018-05-25T13:27:42.308Z,6.70
2018-05-25T13:30:10.880Z,11.90
2018-05-25T13:32:39.388Z,10.10
2018-05-25T13:35:07.090Z,9.73
2018-05-25T13:37:34.992Z,12.60
2018-05-25T13:40:03.540Z,12.10
2018-05-25T13:42:31.684Z,11.43
2018-05-25T13:44:59.654Z,9.40
2018-05-25T13:47:27.358Z,2.63
2018-05-25T13:49:55.907Z,7.50
2018-05-25T13:52:24.412Z,8.23
2018-05-25T13:54:52.128Z,11.93
2018-05-25T13:57:19.843Z,7.73
2018-05-25T13:59:47.608Z,14.17
2018-05-25T14:02:15.356Z,6.87
2018-05-25T14:04:43.304Z,15.10
2018-05-25T14:07:11.027Z,4.47
2018-05-25T14:09:39.490Z,4.57
2018-05-25T14:12:07.229Z,15.10
2018-05-25T14:14:36.365Z,8.23
2018-05-25T14:17:04.878Z,8.30
2018-05-25T14:19:32.668Z,8.80
2018-05-25T14:22:00.367Z,7.83
2018-05-25T14:24:28.111Z,4.37
2018-05-25T14:26:55.862Z,6.33
2018-05-25T14:29:23.574Z,6.73
2018-05-25T14:31:52.048Z,8.77
2018-05-25T14:34:20.552Z,17.80
2018-05-25T14:36:48.442Z,14.43
2018-05-25T14:39:16.940Z,5.13
2018-05-25T14:41:44.680Z,14.53
2018-05-25T14:44:12.392Z,8.73
2018-05-25T14:46:41.104Z,14.03
2018-05-25T14:49:09.660Z,10.57
2018-05-25T14:51:37.369Z,7.50
2018-05-25T14:54:05.109Z,14.60
2018-05-25T14:56:33.603Z,6.73
2018-05-25T14:59:01.355Z,4.33
2018-05-25T15:01:29.728Z,13.50
2018-05-25T15:03:58.228Z,5.70
2018-05-25T15:06:26.108Z,23.00
2018-05-25T15:08:54.188Z,3.67
2018-05-25T15:11:22.139Z,4.90
2018-05-25T15:13:49.872Z,4.60
2018-05-25T15:16:18.515Z,6.50
2018-05-25T15:18:46.212Z,14.93
2018-05-25T15:21:14.004Z,5.67
2018-05-25T15:23:42.547Z,7.77
2018-05-25T15:26:10.320Z,10.27
2018-05-25T15:28:38.158Z,12.57
2018-05-25T15:31:06.098Z,4.93
2018-05-25T15:33:33.616Z,6.20
2018-05-25T15:36:01.614Z,9.80
2018-05-25T15:38:29.413Z,7.30
2018-05-25T15:40:57.173Z,5.97
2018-05-25T15:43:24.888Z,7.77
2018-05-25T15:45:53.358Z,3.43
2018-05-25T15:48:21.092Z,5.33
2018-05-25T15:50:49.012Z,12.20
2018-05-25T15:53:17.485Z,3.83
2018-05-25T15:55:45.952Z,6.20
2018-05-25T15:58:14.497Z,4.67
2018-05-25T16:00:42.252Z,6.30
2018-05-25T16:03:09.968Z,14.10
2018-05-25T16:05:38.500Z,3.73
2018-05-25T16:08:06.260Z,21.87
2018-05-25T16:10:34.068Z,13.87
2018-05-25T16:13:02.910Z,8.57
2018-05-25T16:15:30.669Z,11.33
2018-05-25T16:17:58.461Z,22.70
2018-05-25T16:20:26.205Z,6.40
2018-05-25T16:22:53.904Z,7.63
2018-05-25T16:25:21.625Z,7.63
2018-05-25T16:27:49.633Z,10.47
2018-05-25T16:30:17.342Z,6.67
2018-05-25T16:32:45.067Z,11.90
2018-05-25T16:35:12.798Z,7.20
2018-05-25T16:37:40.548Z,9.43
2018-05-25T16:40:08.357Z,5.70
2018-05-25T16:42:36.093Z,8.13
2018-05-25T16:45:04.109Z,6.53
2018-05-25T16:47:32.573Z,7.37
2018-05-25T16:50:00.308Z,9.67
2018-05-25T16:52:28.074Z,11.33
2018-05-25T16:54:55.799Z,7.40
2018-05-25T16:57:23.539Z,7.40
2018-05-25T16:59:52.059Z,5.40
2018-05-25T17:02:20.633Z,9.87
2018-05-25T17:04:48.485Z,7.40
2018-05-25T17:07:16.234Z,9.37
2018-05-25T17:09:43.984Z,11.83
2018-05-25T17:12:11.722Z,11.50
2018-05-25T17:14:39.428Z,29.87
2018-05-25T17:17:07.934Z,11.73
2018-05-25T17:19:35.673Z,10.93
2018-05-25T17:22:04.148Z,8.43
2018-05-25T17:24:32.679Z,13.37
2018-05-25T17:27:00.385Z,12.50
2018-05-25T17:29:28.157Z,17.10
2018-05-25T17:31:56.668Z,6.50
2018-05-25T17:34:24.363Z,8.97
2018-05-25T17:36:52.069Z,15.50
2018-05-25T17:39:20.559Z,8.90
2018-05-25T17:41:49.079Z,7.70
2018-05-25T17:44:16.788Z,5.63
2018-05-25T17:46:45.316Z,7.17
2018-05-25T17:49:13.404Z,13.20
2018-05-25T17:51:41.100Z,10.90
2018-05-25T17:54:09.600Z,9.90
2018-05-25T17:56:37.333Z,7.23
2018-05-25T17:59:05.056Z,8.87
2018-05-25T18:01:32.791Z,13.70
2018-05-25T18:04:00.533Z,7.47
2018-05-25T18:06:29.014Z,7.23
2018-05-25T18:08:57.539Z,6.13
2018-05-25T18:11:25.240Z,11.07
2018-05-25T18:13:52.960Z,10.63
2018-05-25T18:16:20.790Z,8.07
2018-05-25T18:18:49.292Z,7.13
2018-05-25T18:21:17.006Z,10.50
2018-05-25T18:23:44.811Z,8.40
2018-05-25T18:26:13.312Z,10.70
2018-05-25T18:28:41.024Z,4.70
2018-05-25T18:31:08.801Z,13.50
2018-05-25T18:33:36.500Z,5.90
2018-05-25T18:36:04.277Z,17.60
2018-05-25T18:38:32.144Z,10.87
2018-05-25T18:40:59.866Z,9.67
2018-05-25T18:43:28.352Z,13.80
2018-05-25T18:45:56.857Z,24.23
2018-05-25T18:48:24.939Z,20.87
2018-05-25T18:50:53.437Z,13.00
2018-05-25T18:53:21.185Z,14.30
2018-05-25T18:55:48.936Z,19.10
2018-05-25T18:58:16.701Z,12.40
2018-05-25T19:00:44.442Z,12.87
2018-05-25T19:03:12.932Z,16.20
2018-05-25T19:05:40.668Z,9.87
2018-05-25T19:08:08.436Z,11.20
2018-05-25T19:10:37.049Z,8.77
2018-05-25T19:13:04.768Z,15.60
2018-05-25T19:15:32.621Z,7.77
2018-05-25T19:18:00.372Z,12.77
2018-05-25T19:20:28.203Z,15.83
2018-05-25T19:22:58.063Z,14.30
2018-05-25T19:25:25.861Z,18.93
2018-05-25T19:27:55.241Z,12.57
2018-05-25T19:30:22.961Z,18.17
2018-05-25T19:32:51.445Z,8.70
2018-05-25T19:35:19.177Z,9.00
2018-05-25T19:37:47.713Z,12.70
2018-05-25T19:40:15.438Z,12.10
2018-05-25T19:42:43.197Z,8.30
2018-05-25T19:45:10.913Z,10.03
2018-05-25T19:47:38.636Z,7.13
2018-05-25T19:50:06.423Z,9.83
2018-05-25T19:52:35.084Z,7.67
2018-05-25T19:55:02.832Z,14.83
2018-05-25T19:57:31.341Z,6.07
2018-05-25T19:59:59.048Z,6.10
2018-05-25T20:02:26.750Z,8.17
2018-05-25T20:04:54.473Z,14.23
2018-05-25T20:07:22.184Z,9.93
2018-05-25T20:09:49.883Z,12.30
2018-05-25T20:12:17.921Z,15.10
2018-05-25T20:14:46.403Z,10.70
2018-05-25T20:17:16.618Z,17.10
2018-05-25T20:19:45.511Z,9.40
2018-05-25T20:22:16.810Z,13.33
2018-05-25T20:24:46.602Z,8.43
2018-05-25T20:27:16.767Z,12.13
2018-05-25T20:29:45.081Z,8.33
2018-05-25T20:32:14.488Z,13.50
2018-05-25T20:34:43.966Z,10.97
2018-05-25T20:37:12.704Z,7.40
2018-05-25T20:39:41.236Z,9.53
2018-05-25T20:42:08.976Z,15.93
2018-05-25T20:44:38.212Z,16.80
2018-05-25T20:47:06.000Z,6.60
2018-05-25T20:49:33.820Z,13.60
2018-05-25T20:52:01.533Z,8.10
2018-05-25T20:54:29.309Z,8.17
2018-05-25T20:56:57.060Z,8.13
2018-05-25T20:59:26.987Z,11.10
2018-05-25T21:01:54.748Z,13.30
2018-05-25T21:04:22.520Z,13.20
2018-05-25T21:06:52.829Z,7.87
2018-05-25T21:09:20.725Z,10.83
2018-05-25T21:11:49.201Z,10.23
2018-05-25T21:14:17.724Z,8.77
2018-05-25T21:16:46.042Z,12.70
2018-05-25T21:19:16.321Z,7.40
2018-05-25T21:21:44.064Z,7.70
2018-05-25T21:24:12.045Z,11.90
2018-05-25T21:26:42.640Z,9.50
2018-05-25T21:29:11.168Z,9.17
2018-05-25T21:31:38.920Z,10.03
2018-05-25T21:34:06.950Z,7.50
2018-05-25T21:36:35.331Z,5.70
2018-05-25T21:39:05.920Z,14.27
2018-05-25T21:41:33.684Z,4.60
2018-05-25T21:44:01.461Z,10.40
2018-05-25T21:46:29.203Z,6.00
2018-05-25T21:48:56.917Z,4.60
2018-05-25T21:51:25.092Z,11.13
2018-05-25T21:53:52.836Z,9.17
2018-05-25T21:56:20.585Z,6.00
2018-05-25T21:58:48.331Z,6.37
2018-05-25T22:01:16.046Z,10.90
2018-05-25T22:03:43.772Z,5.37
2018-05-25T22:06:11.494Z,6.13
2018-05-25T22:08:39.965Z,12.47
2018-05-25T22:11:08.473Z,4.67
2018-05-25T22:13:36.228Z,5.33
2018-05-25T22:16:04.030Z,12.73
2018-05-25T22:18:31.779Z,8.63
2018-05-25T22:20:59.491Z,8.50
2018-05-25T22:23:27.203Z,8.60
2018-05-25T22:25:54.982Z,10.03
2018-05-25T22:28:22.719Z,5.10
2018-05-25T22:30:50.461Z,15.53
2018-05-25T22:33:18.978Z,5.70
2018-05-25T22:35:46.683Z,5.17
2018-05-25T22:38:14.407Z,16.43
2018-05-25T22:40:42.208Z,8.67
2018-05-25T22:43:21.908Z,11.00
2018-05-25T22:46:01.623Z,10.33
2018-05-25T22:48:42.095Z,7.43
2018-05-25T22:51:21.778Z,9.97
2018-05-25T22:53:54.668Z,13.97
2018-05-25T22:56:22.529Z,5.73
2018-05-25T22:58:50.271Z,12.73
2018-05-25T23:01:18.101Z,8.90
2018-05-25T23:03:47.442Z,13.57
2018-05-25T23:06:15.249Z,10.23
2018-05-25T23:08:43.012Z,9.67
2018-05-25T23:11:10.784Z,12.30
2018-05-25T23:13:38.579Z,10.33
2018-05-25T23:16:06.450Z,17.77
2018-05-25T23:18:34.258Z,16.30
2018-05-25T23:21:02.039Z,6.00
2018-05-25T23:23:29.828Z,4.93
2018-05-25T23:25:57.661Z,5.73
2018-05-25T23:28:25.439Z,7.70
2018-05-25T23:30:53.210Z,6.03
2018-05-25T23:33:21.727Z,8.30
2018-05-25T23:35:49.428Z,5.60
2018-05-25T23:38:17.218Z,18.07
2018-05-25T23:40:45.751Z,6.30
2018-05-25T23:43:13.468Z,6.27
2018-05-25T23:45:41.948Z,8.70
2018-05-25T23:48:10.523Z,7.53
2018-05-25T23:50:39.046Z,10.97
2018-05-25T23:53:06.816Z,8.83
2018-05-25T23:55:34.549Z,5.17
2018-05-25T23:58:03.012Z,7.60
